Durango, Spain
Current Conditions -  °F | °C
As of 9:30 PM on Thursday 27 Nov 2014 (Local Time) from LEBB Reporting Station
Clear Clear  
Wind Chill: 63°   Ceiling: Unl
Heat Index: 63°   Visibility: 6mi
Dew Point: 48°   Wind: 16mph
Humidity: 59%   Direction: 140°SE
Pressure: 29.23"   Gusts: 31mph
Location:  43.17°N, 2.63°W
Report Text: LEBB 272030Z 14014G27KT 100V170 CAVOK 17/09 Q0990 NOSIG
Loading
Personal Weather Stations






























Interactive Weather Map New forecast layout! Learn more

10-Day Weather Forecast

Advertisements
Track Severe Weather on mobile